Time;durP1;ratioP1;P1;durP2;ratioP2;P2;SDS_P1;SDS_P2;PMS_P1;PMS_P2;Temp;Humidity;BMP_temperature;BMP_pressure;BME280_temperature;BME280_humidity;BME280_pressure;Samples;Min_cycle;Max_cycle;Signal;HPM_P1;HPM_P2
2023/09/18 00:00:53;;;;;;;4.10;1.10;;;;;;;19.81;100.00;100000.97;7357249;19;21993;-62
2023/09/18 00:03:24;;;;;;;5.07;1.05;;;;;;;19.74;100.00;99988.81;7353369;19;20089;-60
2023/09/18 00:05:52;;;;;;;2.65;0.60;;;;;;;19.64;100.00;99984.06;7356538;19;20689;-62
2023/09/18 00:08:20;;;;;;;3.45;0.88;;;;;;;19.61;100.00;99977.31;7354770;19;20094;-61
2023/09/18 00:10:50;;;;;;;4.47;0.90;;;;;;;19.58;100.00;99958.28;7356589;19;20019;-61
2023/09/18 00:13:18;;;;;;;4.65;1.17;;;;;;;19.55;100.00;99948.91;7355072;19;20030;-60
2023/09/18 00:15:46;;;;;;;4.05;0.70;;;;;;;19.49;100.00;99949.00;7353787;19;20022;-61
2023/09/18 00:18:15;;;;;;;10.20;4.03;;;;;;;19.43;100.00;99950.72;7356607;19;20037;-60
2023/09/18 00:20:43;;;;;;;7.38;2.60;;;;;;;19.40;100.00;99945.81;7356199;19;20018;-61
2023/09/18 00:23:11;;;;;;;10.35;1.88;;;;;;;19.40;100.00;99935.16;7355980;19;20022;-60
2023/09/18 00:25:41;;;;;;;5.03;0.75;;;;;;;19.34;100.00;99905.94;7356830;19;20487;-60
2023/09/18 00:28:08;;;;;;;4.38;0.52;;;;;;;19.29;100.00;99897.81;7357551;19;20014;-61
2023/09/18 00:30:43;;;;;;;3.90;0.60;;;;;;;19.23;100.00;99870.22;7360644;19;20462;-62
2023/09/18 00:33:10;;;;;;;2.28;0.65;;;;;;;19.17;100.00;99863.13;7362566;19;20272;-61
2023/09/18 00:35:38;;;;;;;4.63;1.05;;;;;;;19.14;100.00;99877.78;7353445;19;20010;-60
2023/09/18 00:38:07;;;;;;;3.00;0.82;;;;;;;19.16;100.00;99877.50;7355046;19;20010;-62
2023/09/18 00:40:34;;;;;;;4.00;0.80;;;;;;;19.17;100.00;99879.97;7354460;19;20462;-62
2023/09/18 00:43:02;;;;;;;3.95;0.93;;;;;;;19.16;100.00;99861.50;7353221;19;20133;-62
2023/09/18 00:45:30;;;;;;;5.28;1.02;;;;;;;19.16;100.00;99866.84;7356644;19;20653;-61
2023/09/18 00:47:57;;;;;;;2.08;0.70;;;;;;;19.15;100.00;99866.03;7355438;19;20022;-61
2023/09/18 00:50:26;;;;;;;3.13;0.77;;;;;;;19.14;100.00;99867.09;7356030;19;20745;-61
2023/09/18 00:52:54;;;;;;;3.95;2.10;;;;;;;19.19;100.00;99863.72;7355425;19;20015;-62
2023/09/18 00:55:22;;;;;;;4.40;0.77;;;;;;;19.23;100.00;99856.88;7356578;19;20014;-61
2023/09/18 00:57:50;;;;;;;3.85;0.70;;;;;;;19.22;100.00;99847.25;7352799;19;20015;-61
2023/09/18 01:00:18;;;;;;;2.67;0.70;;;;;;;19.19;100.00;99853.88;7352482;19;20022;-61
2023/09/18 01:02:45;;;;;;;1.92;0.68;;;;;;;19.17;100.00;99857.81;7350908;19;20505;-61
2023/09/18 01:05:16;;;;;;;2.58;0.73;;;;;;;19.17;100.00;99855.97;7356957;19;20047;-61
2023/09/18 01:07:44;;;;;;;5.05;3.13;;;;;;;19.17;100.00;99847.13;7354510;19;20014;-60
2023/09/18 01:12:46;;;;;;;2.92;0.80;;;;;;;19.18;100.00;99830.91;7355050;19;20014;-62
2023/09/18 01:15:23;;;;;;;1.40;0.60;;;;;;;19.16;100.00;99827.66;7358226;19;20018;-61
2023/09/18 01:17:51;;;;;;;2.38;0.70;;;;;;;19.16;100.00;99808.16;7349926;19;20014;-61
2023/09/18 01:20:18;;;;;;;3.60;0.70;;;;;;;19.13;100.00;99806.78;7354840;19;20018;-61
2023/09/18 01:22:46;;;;;;;3.15;0.82;;;;;;;19.11;100.00;99811.53;7353603;19;20011;-59
2023/09/18 01:25:14;;;;;;;5.07;3.38;;;;;;;19.12;100.00;99810.50;7355461;19;20692;-62
2023/09/18 01:27:41;;;;;;;2.67;1.10;;;;;;;19.17;100.00;99805.28;7346314;19;20019;-61
2023/09/18 01:30:10;;;;;;;2.60;0.70;;;;;;;19.17;100.00;99793.78;7350553;19;20010;-60
2023/09/18 01:32:39;;;;;;;4.07;0.77;;;;;;;19.16;100.00;99776.16;7353489;19;20018;-61
2023/09/18 01:35:09;;;;;;;6.78;0.95;;;;;;;19.16;100.00;99770.81;7356578;19;20042;-61
2023/09/18 01:37:37;;;;;;;3.83;0.70;;;;;;;19.15;100.00;99762.00;7349080;19;20556;-61
2023/09/18 01:40:06;;;;;;;6.20;0.80;;;;;;;19.15;100.00;99755.84;7358504;19;20021;-61
2023/09/18 01:42:35;;;;;;;3.97;1.10;;;;;;;19.16;100.00;99734.28;7351701;19;20052;-61
2023/09/18 01:45:05;;;;;;;6.65;1.08;;;;;;;19.17;100.00;99721.78;7355663;19;20013;-62
2023/09/18 01:47:32;;;;;;;4.78;1.05;;;;;;;19.17;100.00;99719.91;7353480;19;20018;-61
2023/09/18 01:50:05;;;;;;;4.88;0.70;;;;;;;19.18;100.00;99705.53;7354468;19;21669;-61
2023/09/18 01:52:34;;;;;;;7.65;1.10;;;;;;;19.17;100.00;99711.91;7352275;19;20029;-61
2023/09/18 01:55:04;;;;;;;5.30;0.70;;;;;;;19.15;100.00;99689.19;7354242;19;20021;-61
2023/09/18 01:57:31;;;;;;;3.58;0.93;;;;;;;19.13;100.00;99684.09;7353582;19;20547;-62
2023/09/18 01:59:59;;;;;;;5.60;1.50;;;;;;;19.13;100.00;99656.63;7349848;19;20017;-64
2023/09/18 02:02:27;;;;;;;9.75;1.40;;;;;;;19.15;100.00;99683.84;7345277;19;20010;-62
2023/09/18 02:05:15;;;;;;;5.90;1.02;;;;;;;19.16;100.00;99718.28;7353927;19;20015;-62
2023/09/18 02:07:42;;;;;;;4.55;0.90;;;;;;;19.15;100.00;99703.34;7346923;19;20011;-61
2023/09/18 02:10:12;;;;;;;8.20;1.00;;;;;;;19.16;100.00;99709.47;7349363;19;20007;-61
2023/09/18 02:12:40;;;;;;;4.60;0.80;;;;;;;19.15;100.00;99695.34;7351378;19;21243;-61
2023/09/18 02:15:10;;;;;;;7.25;1.05;;;;;;;19.14;100.00;99691.06;7352669;19;20007;-61
2023/09/18 02:17:37;;;;;;;8.98;1.48;;;;;;;19.21;100.00;99680.25;7349635;19;20024;-61
2023/09/18 02:20:11;;;;;;;7.78;1.00;;;;;;;19.18;100.00;99673.53;7354650;19;20014;-62
2023/09/18 02:22:40;;;;;;;6.53;0.90;;;;;;;19.17;100.00;99684.44;7349868;19;20572;-62
2023/09/18 02:25:08;;;;;;;6.88;0.80;;;;;;;19.15;100.00;99686.50;7354835;19;20081;-62
2023/09/18 02:27:35;;;;;;;9.20;0.90;;;;;;;19.11;100.00;99682.72;7351423;19;20344;-60
2023/09/18 02:30:04;;;;;;;4.38;1.00;;;;;;;19.09;100.00;99682.16;7360226;19;20022;-61
2023/09/18 02:32:32;;;;;;;6.88;1.45;;;;;;;19.09;100.00;99682.97;7359821;19;20474;-61
2023/09/18 02:35:00;;;;;;;10.07;1.55;;;;;;;19.09;100.00;99674.97;7361165;19;20018;-61
2023/09/18 02:37:29;;;;;;;6.18;1.30;;;;;;;19.09;100.00;99682.16;7352406;19;20495;-61
2023/09/18 02:39:56;;;;;;;4.35;0.77;;;;;;;19.08;100.00;99689.34;7356303;19;20014;-62
2023/09/18 02:42:24;;;;;;;7.97;0.93;;;;;;;19.06;100.00;99687.94;7351191;19;20056;-61
2023/09/18 02:44:51;;;;;;;9.73;1.10;;;;;;;19.04;100.00;99674.06;7352440;19;20123;-60
2023/09/18 02:47:19;;;;;;;7.97;1.38;;;;;;;19.06;100.00;99671.94;7353095;19;20473;-61
2023/09/18 02:49:46;;;;;;;3.75;0.80;;;;;;;19.00;100.00;99655.03;7354590;19;20018;-62
2023/09/18 02:52:14;;;;;;;9.52;2.97;;;;;;;19.02;100.00;99668.13;7352437;19;20074;-61
2023/09/18 02:54:42;;;;;;;6.90;0.82;;;;;;;19.03;100.00;99665.25;7359805;19;20018;-61
2023/09/18 02:57:09;;;;;;;8.52;1.02;;;;;;;19.02;100.00;99673.47;7359097;19;20838;-61
2023/09/18 02:59:37;;;;;;;7.82;1.35;;;;;;;19.00;100.00;99670.22;7358794;19;20018;-62
2023/09/18 03:02:05;;;;;;;7.50;0.90;;;;;;;18.96;100.00;99671.75;7353955;19;20175;-61
2023/09/18 03:04:33;;;;;;;7.65;0.88;;;;;;;18.90;100.00;99668.16;7361441;19;20019;-63
2023/09/18 03:07:00;;;;;;;9.15;2.42;;;;;;;18.93;100.00;99666.88;7356736;19;20049;-61
2023/09/18 03:09:28;;;;;;;9.80;1.17;;;;;;;18.96;100.00;99675.22;7355366;19;20458;-61
2023/09/18 03:11:55;;;;;;;9.68;1.35;;;;;;;18.94;100.00;99682.66;7357423;19;20445;-61
2023/09/18 03:14:23;;;;;;;8.05;0.80;;;;;;;18.94;100.00;99677.31;7359029;19;20025;-61
2023/09/18 03:16:50;;;;;;;15.23;2.08;;;;;;;18.92;100.00;99679.41;7358313;19;20017;-61
2023/09/18 03:19:18;;;;;;;9.80;1.33;;;;;;;18.92;100.00;99679.41;7355271;19;20014;-61
2023/09/18 03:21:45;;;;;;;8.30;2.63;;;;;;;18.93;100.00;99680.22;7356998;19;20343;-61
2023/09/18 03:24:13;;;;;;;5.65;1.30;;;;;;;18.93;100.00;99674.88;7359507;19;20499;-61
2023/09/18 03:26:40;;;;;;;12.35;1.40;;;;;;;18.94;100.00;99679.19;7359009;19;20032;-61
2023/09/18 03:29:08;;;;;;;12.98;1.65;;;;;;;18.93;100.00;99680.22;7359979;19;20018;-61
2023/09/18 03:31:35;;;;;;;8.90;1.00;;;;;;;18.91;100.00;99690.28;7357113;19;20021;-61
2023/09/18 03:34:03;;;;;;;4.20;1.38;;;;;;;18.90;100.00;99704.66;7357173;19;20006;-62
2023/09/18 03:36:31;;;;;;;10.93;1.55;;;;;;;18.84;100.00;99694.97;7358966;19;20014;-60
2023/09/18 03:38:58;;;;;;;11.02;1.38;;;;;;;18.86;100.00;99700.84;7357654;19;20110;-62
2023/09/18 03:41:25;;;;;;;9.57;1.80;;;;;;;18.90;100.00;99697.47;7354479;19;20042;-62
2023/09/18 03:43:53;;;;;;;7.30;1.55;;;;;;;18.89;100.00;99695.88;7351174;19;20573;-61
2023/09/18 03:46:21;;;;;;;5.28;1.30;;;;;;;18.88;100.00;99702.25;7353549;19;20014;-60
2023/09/18 03:48:48;;;;;;;12.18;1.33;;;;;;;18.85;100.00;99697.38;7357969;19;20029;-61
2023/09/18 03:51:16;;;;;;;7.90;1.60;;;;;;;18.83;100.00;99693.34;7354411;19;20356;-60
2023/09/18 03:53:43;;;;;;;8.98;1.27;;;;;;;18.80;100.00;99695.41;7357223;19;20018;-62
2023/09/18 03:56:11;;;;;;;10.15;1.50;;;;;;;18.78;100.00;99699.38;7358622;19;20014;-62
2023/09/18 03:58:38;;;;;;;12.65;2.20;;;;;;;18.79;100.00;99703.66;7356621;19;20096;-62
2023/09/18 04:01:06;;;;;;;8.88;1.10;;;;;;;18.83;100.00;99682.69;7353932;19;20052;-61
2023/09/18 04:03:33;;;;;;;8.27;1.67;;;;;;;18.81;100.00;99685.56;7351885;19;20479;-61
2023/09/18 04:06:01;;;;;;;12.73;1.33;;;;;;;18.79;100.00;99688.47;7356618;19;20010;-61
2023/09/18 04:08:29;;;;;;;13.20;1.20;;;;;;;18.75;100.00;99692.63;7357067;19;21329;-62
2023/09/18 04:10:57;;;;;;;12.20;1.38;;;;;;;18.74;100.00;99692.91;7349198;19;20011;-60
2023/09/18 04:13:25;;;;;;;9.48;1.63;;;;;;;18.69;100.00;99698.91;7357123;19;20014;-61
2023/09/18 04:15:56;;;;;;;17.25;5.97;;;;;;;18.71;100.00;99696.00;7354832;19;21878;-61
2023/09/18 04:18:24;;;;;;;10.45;1.30;;;;;;;18.70;100.00;99697.88;7357383;19;20428;-65
2023/09/18 04:20:52;;;;;;;8.23;1.50;;;;;;;18.70;100.00;99695.19;7354779;19;20018;-62
2023/09/18 04:23:23;;;;;;;8.82;1.48;;;;;;;18.70;100.00;99689.06;7357202;19;20021;-62
2023/09/18 04:25:52;;;;;;;10.38;1.60;;;;;;;18.71;100.00;99686.16;7356372;19;20474;-61
2023/09/18 04:28:21;;;;;;;12.43;1.65;;;;;;;18.71;100.00;99686.16;7354407;19;20014;-61
2023/09/18 04:30:49;;;;;;;9.23;1.23;;;;;;;18.73;100.00;99681.41;7355306;19;20009;-61
2023/09/18 04:33:17;;;;;;;10.52;1.38;;;;;;;18.71;100.00;99680.03;7355843;19;20631;-60
2023/09/18 04:35:45;;;;;;;13.25;2.08;;;;;;;18.72;100.00;99686.97;7355502;19;20007;-62
2023/09/18 04:38:15;;;;;;;8.00;1.50;;;;;;;18.75;100.00;99684.66;7354171;19;20022;-61
2023/09/18 04:40:42;;;;;;;8.63;1.80;;;;;;;18.73;100.00;99683.28;7357932;19;20019;-62
2023/09/18 04:43:10;;;;;;;12.88;1.67;;;;;;;18.68;100.00;99677.84;7354491;19;20227;-62
2023/09/18 04:45:37;;;;;;;13.52;1.80;;;;;;;18.68;100.00;99680.50;7357400;19;21387;-62
2023/09/18 04:48:08;;;;;;;10.57;1.77;;;;;;;18.70;100.00;99681.88;7353816;19;20014;-60
2023/09/18 04:50:35;;;;;;;9.80;1.65;;;;;;;18.69;100.00;99679.47;7355949;19;20086;-62
2023/09/18 04:53:03;;;;;;;15.63;7.50;;;;;;;18.71;100.00;99682.69;7353729;19;20013;-61
2023/09/18 04:55:31;;;;;;;14.20;2.55;;;;;;;18.75;100.00;99689.16;7347260;19;20014;-62
2023/09/18 04:57:59;;;;;;;13.95;3.05;;;;;;;18.69;100.00;99676.78;7345817;19;20015;-63
2023/09/18 05:00:29;;;;;;;13.20;2.75;;;;;;;18.65;100.00;99675.63;7352076;19;20240;-62
2023/09/18 05:02:58;;;;;;;12.80;3.75;;;;;;;18.64;100.00;99664.16;7349053;19;20047;-61
2023/09/18 05:05:25;;;;;;;9.07;3.03;;;;;;;18.65;100.00;99672.94;7354422;19;20081;-61
2023/09/18 05:07:53;;;;;;;15.00;4.55;;;;;;;18.64;100.00;99666.81;7350916;19;20021;-61
2023/09/18 05:10:20;;;;;;;12.98;3.78;;;;;;;18.65;100.00;99664.97;7360527;19;20451;-62
2023/09/18 05:12:50;;;;;;;12.10;4.40;;;;;;;18.71;100.00;99664.84;7356564;19;20018;-60
2023/09/18 05:15:17;;;;;;;12.95;4.57;;;;;;;18.76;100.00;99664.94;7357128;19;20029;-60
2023/09/18 05:17:47;;;;;;;15.32;5.32;;;;;;;18.77;100.00;99671.09;7353660;19;20183;-60
2023/09/18 05:20:16;;;;;;;8.57;4.32;;;;;;;18.77;100.00;99665.75;7356565;19;20014;-62
2023/09/18 05:22:45;;;;;;;14.82;5.43;;;;;;;18.76;100.00;99670.28;7352857;19;20447;-61
2023/09/18 05:25:16;;;;;;;10.95;4.05;;;;;;;18.77;100.00;99669.25;7350038;19;21126;-63
2023/09/18 05:27:45;;;;;;;10.43;5.07;;;;;;;18.79;100.00;99669.00;7354826;19;20442;-61
2023/09/18 05:30:15;;;;;;;11.18;4.22;;;;;;;18.83;100.00;99664.81;7356015;19;20018;-61
2023/09/18 05:32:45;;;;;;;14.95;6.68;;;;;;;18.85;100.00;99673.38;7353798;19;20011;-62
2023/09/18 05:35:13;;;;;;;12.48;5.32;;;;;;;18.87;100.00;99667.81;7355611;19;20034;-62
2023/09/18 05:37:41;;;;;;;11.18;4.50;;;;;;;18.89;100.00;99673.75;7352240;19;20034;-60
2023/09/18 05:40:11;;;;;;;12.18;4.75;;;;;;;18.88;100.00;99672.94;7355215;19;20089;-61
2023/09/18 05:42:42;;;;;;;12.63;5.05;;;;;;;18.89;100.00;99676.41;7354010;19;20010;-61
2023/09/18 05:45:11;;;;;;;10.77;4.78;;;;;;;18.86;100.00;99664.34;7355650;19;20011;-61
2023/09/18 05:47:39;;;;;;;10.98;4.63;;;;;;;18.89;100.00;99669.22;7354947;19;20447;-60
2023/09/18 05:50:09;;;;;;;13.95;4.97;;;;;;;18.91;100.00;99667.13;7354446;19;20006;-62
2023/09/18 05:52:36;;;;;;;10.13;5.05;;;;;;;18.90;100.00;99670.81;7346764;19;20018;-60
2023/09/18 05:55:04;;;;;;;12.40;5.28;;;;;;;18.90;100.00;99665.50;7354831;19;20103;-60
2023/09/18 05:57:32;;;;;;;12.50;4.45;;;;;;;18.91;100.00;99669.78;7348752;19;20022;-66
2023/09/18 06:00:00;;;;;;;9.10;4.10;;;;;;;18.92;100.00;99671.41;7354115;19;20054;-61
2023/09/18 06:02:27;;;;;;;12.73;4.93;;;;;;;18.94;100.00;99674.66;7354619;19;20037;-62
2023/09/18 06:04:57;;;;;;;11.18;5.50;;;;;;;18.96;100.00;99661.06;7355496;19;20757;-62
2023/09/18 06:07:25;;;;;;;15.38;5.30;;;;;;;18.95;100.00;99668.25;7358455;19;20006;-60
2023/09/18 06:09:53;;;;;;;14.27;5.15;;;;;;;18.95;100.00;99673.59;7361137;19;20014;-63
2023/09/18 06:12:21;;;;;;;9.70;5.43;;;;;;;18.94;100.00;99669.31;7356819;19;20033;-61
2023/09/18 06:14:49;;;;;;;12.27;5.07;;;;;;;18.91;100.00;99667.13;7361727;19;20092;-61
2023/09/18 06:17:17;;;;;;;11.60;5.82;;;;;;;18.90;100.00;99665.50;7353469;19;19999;-62
2023/09/18 06:19:45;;;;;;;32.30;20.42;;;;;;;18.89;100.00;99666.56;7362379;19;20533;-62
2023/09/18 06:22:15;;;;;;;17.20;8.15;;;;;;;18.88;100.00;99664.94;7357167;19;20102;-62
2023/09/18 06:24:44;;;;;;;13.82;6.18;;;;;;;18.93;100.00;99662.38;7361905;19;20358;-62
2023/09/18 06:27:12;;;;;;;13.57;5.88;;;;;;;18.92;100.00;99668.75;7357614;19;20113;-63
2023/09/18 06:29:39;;;;;;;13.43;5.63;;;;;;;18.89;100.00;99668.41;7361511;19;20026;-62
2023/09/18 06:32:07;;;;;;;12.48;5.80;;;;;;;18.86;100.00;99667.00;7356492;19;20021;-62
2023/09/18 06:34:38;;;;;;;14.43;5.43;;;;;;;18.89;100.00;99666.56;7360044;19;20504;-62
2023/09/18 06:37:07;;;;;;;10.25;5.70;;;;;;;18.93;100.00;99681.03;7358180;19;20478;-64
2023/09/18 06:39:36;;;;;;;15.52;7.05;;;;;;;18.97;100.00;99682.19;7361113;19;20022;-61
2023/09/18 06:42:03;;;;;;;13.40;6.50;;;;;;;19.01;100.00;99677.16;7358368;19;20085;-63
2023/09/18 06:44:31;;;;;;;12.65;5.90;;;;;;;19.00;100.00;99676.34;7361714;19;21722;-62
2023/09/18 06:46:58;;;;;;;12.65;5.80;;;;;;;18.98;100.00;99673.13;7369039;19;20026;-62
2023/09/18 06:49:27;;;;;;;11.98;6.18;;;;;;;19.01;100.00;99690.50;7363126;19;20017;-62
2023/09/18 06:51:54;;;;;;;11.50;5.93;;;;;;;19.04;100.00;99684.72;7358604;19;20019;-62
2023/09/18 06:54:22;;;;;;;15.57;6.63;;;;;;;19.06;100.00;99678.09;7360152;19;20014;-62
2023/09/18 06:56:50;;;;;;;16.52;7.05;;;;;;;19.07;100.00;99670.91;7358614;19;20113;-61
2023/09/18 06:59:17;;;;;;;10.68;4.93;;;;;;;19.10;100.00;99662.41;7359158;19;20038;-61
2023/09/18 07:01:46;;;;;;;8.70;5.30;;;;;;;19.13;100.00;99665.44;7355847;19;20578;-62
2023/09/18 07:04:13;;;;;;;13.68;5.70;;;;;;;19.17;100.00;99658.56;7352542;19;20018;-61
2023/09/18 07:06:41;;;;;;;10.82;5.13;;;;;;;19.21;100.00;99667.72;7352423;19;20443;-61
2023/09/18 07:09:11;;;;;;;10.50;4.97;;;;;;;19.30;100.00;99665.47;7360384;19;20042;-62
2023/09/18 07:11:39;;;;;;;10.15;4.93;;;;;;;19.31;100.00;99672.44;7357250;19;20331;-61
2023/09/18 07:14:07;;;;;;;12.88;5.28;;;;;;;19.35;100.00;99675.44;7358600;19;20022;-62
2023/09/18 07:16:35;;;;;;;9.95;4.53;;;;;;;19.36;100.00;99675.19;7356406;19;20325;-62
2023/09/18 07:21:35;;;;;;;9.75;4.43;;;;;;;19.39;100.00;99660.59;7355369;19;20029;-62
2023/09/18 07:24:02;;;;;;;9.23;4.40;;;;;;;19.39;100.00;99666.72;7357493;19;20094;-62
2023/09/18 07:26:31;;;;;;;9.90;3.83;;;;;;;19.39;100.00;99665.91;7358545;19;20015;-63
2023/09/18 07:28:59;;;;;;;7.45;3.50;;;;;;;19.32;100.00;99674.06;7353444;19;20518;-62
2023/09/18 07:31:28;;;;;;;8.02;4.93;;;;;;;19.34;100.00;99674.63;7355934;19;20019;-62
2023/09/18 07:33:56;;;;;;;6.60;3.67;;;;;;;19.35;100.00;99676.22;7359848;19;20046;-62
2023/09/18 07:36:24;;;;;;;8.18;4.22;;;;;;;19.35;100.00;99678.91;7353765;19;20026;-63
2023/09/18 07:38:51;;;;;;;7.43;2.92;;;;;;;19.32;100.00;99666.06;7356392;19;20074;-63
2023/09/18 07:41:21;;;;;;;6.10;3.03;;;;;;;19.32;100.00;99671.38;7357865;19;20028;-62
2023/09/18 07:43:48;;;;;;;9.20;3.45;;;;;;;19.30;100.00;99678.81;7357787;19;20040;-63
2023/09/18 07:46:16;;;;;;;11.60;3.95;;;;;;;19.34;100.00;99673.81;7358053;19;20035;-62
2023/09/18 07:48:45;;;;;;;6.90;3.03;;;;;;;19.40;100.00;99668.31;7358042;19;20020;-63
2023/09/18 07:51:13;;;;;;;8.25;2.78;;;;;;;19.40;100.00;99665.66;7356952;19;21278;-62
2023/09/18 07:53:41;;;;;;;9.20;2.60;;;;;;;19.43;100.00;99664.38;7356622;19;20059;-62
2023/09/18 07:56:09;;;;;;;7.22;2.95;;;;;;;19.43;100.00;99665.19;7352214;19;20081;-61
2023/09/18 07:58:38;;;;;;;7.70;2.88;;;;;;;19.42;100.00;99668.91;7359340;19;20023;-63
2023/09/18 08:01:06;;;;;;;9.30;3.25;;;;;;;19.40;100.00;99660.31;7357915;19;20340;-62
2023/09/18 08:03:34;;;;;;;7.85;2.65;;;;;;;19.46;100.00;99661.25;7355482;19;20015;-62
2023/09/18 08:06:04;;;;;;;8.90;2.13;;;;;;;19.45;100.00;99665.81;7349235;19;20329;-62
2023/09/18 08:08:34;;;;;;;10.25;2.58;;;;;;;19.46;100.00;99663.94;7353132;19;20475;-62
2023/09/18 08:11:08;;;;;;;8.02;2.55;;;;;;;19.49;100.00;99663.47;7357399;19;20025;-62
2023/09/18 08:13:37;;;;;;;5.63;1.90;;;;;;;19.49;100.00;99658.94;7357380;19;20025;-61
2023/09/18 08:16:06;;;;;;;8.38;1.80;;;;;;;19.50;100.00;99659.75;7357222;19;20026;-62
2023/09/18 08:18:35;;;;;;;13.10;3.28;;;;;;;19.54;100.00;99647.53;7357537;19;20029;-62
2023/09/18 08:21:04;;;;;;;7.45;2.55;;;;;;;19.59;100.00;99652.97;7352554;19;20028;-63
2023/09/18 08:23:32;;;;;;;6.13;2.13;;;;;;;19.61;100.00;99648.19;7359065;19;20498;-62
2023/09/18 08:26:01;;;;;;;6.18;1.85;;;;;;;19.62;100.00;99658.63;7353285;19;20014;-62
2023/09/18 08:28:29;;;;;;;7.60;2.22;;;;;;;19.67;100.00;99649.09;7357311;19;20014;-60
2023/09/18 08:30:57;;;;;;;7.95;1.95;;;;;;;19.69;100.00;99639.78;7360298;19;20072;-62
2023/09/18 08:33:25;;;;;;;7.82;2.13;;;;;;;19.70;100.00;99640.59;7357863;19;20019;-61
2023/09/18 08:35:53;;;;;;;9.70;2.00;;;;;;;19.69;100.00;99645.13;7357760;19;20086;-63
2023/09/18 08:38:21;;;;;;;5.47;2.08;;;;;;;19.71;100.00;99643.00;7354714;19;20412;-61
2023/09/18 08:40:48;;;;;;;8.00;1.73;;;;;;;19.69;100.00;99644.31;7358430;19;20010;-62
2023/09/18 08:43:18;;;;;;;5.80;1.67;;;;;;;19.68;100.00;99637.34;7355191;19;20052;-61
2023/09/18 08:45:52;;;;;;;4.97;2.20;;;;;;;19.71;100.00;99634.22;7359174;19;20953;-63
2023/09/18 08:48:21;;;;;;;5.68;2.15;;;;;;;19.74;100.00;99626.53;7351998;19;20094;-61
2023/09/18 08:50:50;;;;;;;7.00;1.92;;;;;;;19.74;100.00;99628.38;7357629;19;20142;-62
2023/09/18 08:53:18;;;;;;;8.80;1.92;;;;;;;19.74;100.00;99626.53;7352380;19;20014;-62
2023/09/18 08:55:46;;;;;;;5.22;1.48;;;;;;;19.77;100.00;99634.03;7358224;19;20011;-63
2023/09/18 08:58:15;;;;;;;7.38;2.13;;;;;;;19.79;100.00;99623.94;7355533;19;20010;-61
2023/09/18 09:00:42;;;;;;;8.27;2.50;;;;;;;19.80;100.00;99620.22;7357708;19;20396;-61
2023/09/18 09:03:10;;;;;;;7.53;1.98;;;;;;;19.82;100.00;99626.13;7353768;19;20046;-61
2023/09/18 09:05:38;;;;;;;8.27;2.45;;;;;;;19.81;100.00;99611.16;7352506;19;20018;-61
2023/09/18 09:08:06;;;;;;;3.13;1.35;;;;;;;19.80;100.00;99609.56;7349479;19;20014;-62
2023/09/18 09:10:33;;;;;;;8.15;1.92;;;;;;;19.80;100.00;99603.41;7355647;19;20018;-63
2023/09/18 09:13:02;;;;;;;7.57;1.67;;;;;;;19.80;100.00;99595.38;7346566;19;20626;-62
2023/09/18 09:15:35;;;;;;;3.85;1.35;;;;;;;19.79;100.00;99607.13;7356343;19;20511;-60
2023/09/18 09:18:05;;;;;;;7.13;2.38;;;;;;;19.80;100.00;99590.03;7353556;19;20011;-62
2023/09/18 09:20:35;;;;;;;6.82;1.70;;;;;;;19.83;100.00;99592.22;7355852;19;20097;-62
2023/09/18 09:23:07;;;;;;;8.77;2.00;;;;;;;19.83;100.00;99584.22;7354201;19;20718;-61
2023/09/18 09:25:36;;;;;;;8.68;2.20;;;;;;;19.83;100.00;99576.19;7357450;19;20030;-61
2023/09/18 09:28:06;;;;;;;6.20;2.63;;;;;;;19.84;100.00;99567.16;7354232;19;20019;-61
2023/09/18 09:30:35;;;;;;;5.78;1.60;;;;;;;19.91;100.00;99571.25;7354778;19;20011;-61
2023/09/18 09:33:05;;;;;;;7.88;1.52;;;;;;;19.96;100.00;99567.88;7351194;19;20015;-62
2023/09/18 09:35:34;;;;;;;7.57;2.05;;;;;;;19.98;100.00;99561.22;7354181;19;20006;-63
2023/09/18 09:38:08;;;;;;;6.10;2.00;;;;;;;20.08;100.00;99545.31;7350868;19;20019;-60
2023/09/18 09:40:40;;;;;;;5.97;1.92;;;;;;;20.20;100.00;99541.75;7362008;19;20458;-61
2023/09/18 09:43:10;;;;;;;5.65;1.05;;;;;;;20.29;100.00;99538.41;7359635;19;20014;-60
2023/09/18 09:45:40;;;;;;;4.75;1.35;;;;;;;20.40;99.65;99537.50;7361861;19;20022;-60
2023/09/18 09:48:08;;;;;;;3.65;0.90;;;;;;;20.48;99.71;99526.34;7359318;19;20039;-62
2023/09/18 09:50:43;;;;;;;4.35;1.65;;;;;;;20.53;99.42;99530.13;7360070;19;20018;-61
2023/09/18 09:53:11;;;;;;;4.63;1.52;;;;;;;20.57;98.94;99517.91;7355137;19;20366;-62
2023/09/18 09:55:38;;;;;;;8.43;0.90;;;;;;;20.61;97.20;99516.34;7362311;19;20018;-62
2023/09/18 09:58:10;;;;;;;4.10;1.30;;;;;;;20.63;97.40;99506.19;7361098;19;20126;-61
2023/09/18 10:00:43;;;;;;;5.82;0.98;;;;;;;20.60;95.32;99512.88;7361639;19;20048;-61
2023/09/18 10:03:13;;;;;;;7.22;0.70;;;;;;;20.55;93.91;99504.78;7346322;19;20022;-61
2023/09/18 10:05:43;;;;;;;8.65;1.00;;;;;;;20.58;94.79;99498.13;7357828;19;20082;-62
2023/09/18 10:08:16;;;;;;;5.78;0.80;;;;;;;20.57;95.30;99488.50;7350758;19;20476;-61
2023/09/18 10:10:47;;;;;;;5.18;0.70;;;;;;;20.55;95.53;99487.94;7356259;19;20086;-61
2023/09/18 10:13:17;;;;;;;4.20;0.60;;;;;;;20.52;94.04;99477.75;7356527;19;20011;-62
2023/09/18 10:15:46;;;;;;;5.95;1.20;;;;;;;20.47;93.73;99475.81;7359278;19;20019;-63
2023/09/18 10:18:38;;;;;;;3.17;0.70;;;;;;;20.42;94.06;99468.56;7357540;19;20017;-63
2023/09/18 10:21:20;;;;;;;5.07;0.40;;;;;;;20.33;91.37;99466.56;7358345;19;21687;-61
2023/09/18 10:24:04;;;;;;;6.23;0.50;;;;;;;20.33;92.29;99467.38;7359741;19;20010;-64
2023/09/18 10:26:38;;;;;;;2.85;0.60;;;;;;;20.31;92.68;99466.03;7358257;19;20259;-61
2023/09/18 10:29:11;;;;;;;4.50;0.80;;;;;;;20.29;93.70;99460.09;7363069;19;20082;-62
2023/09/18 10:31:41;;;;;;;3.30;0.60;;;;;;;20.28;94.92;99458.47;7357177;19;20022;-63
2023/09/18 10:34:09;;;;;;;5.43;0.55;;;;;;;20.25;96.04;99461.66;7359766;19;20022;-61
2023/09/18 10:36:39;;;;;;;3.13;0.40;;;;;;;20.19;95.75;99457.31;7355283;19;20044;-61
2023/09/18 10:39:12;;;;;;;5.63;0.40;;;;;;;20.16;95.15;99455.16;7356980;19;20141;-60
2023/09/18 10:41:41;;;;;;;3.58;0.50;;;;;;;20.23;95.87;99458.41;7357408;19;20360;-61
2023/09/18 10:44:11;;;;;;;3.08;0.52;;;;;;;20.26;95.69;99453.41;7359062;19;20018;-61
2023/09/18 10:46:38;;;;;;;1.88;0.50;;;;;;;20.31;95.56;99453.50;7356157;19;20025;-61
2023/09/18 10:49:07;;;;;;;3.42;0.50;;;;;;;20.38;95.80;99453.28;7357607;19;20014;-62
2023/09/18 10:51:34;;;;;;;2.63;0.60;;;;;;;20.36;94.39;99452.72;7354965;19;20015;-63
2023/09/18 10:54:03;;;;;;;0.95;0.40;;;;;;;20.32;93.03;99454.28;7359755;19;20011;-61
2023/09/18 10:56:32;;;;;;;5.75;2.20;;;;;;;20.29;91.52;99444.88;7358379;19;20064;-62
2023/09/18 10:59:02;;;;;;;5.97;1.55;;;;;;;20.35;92.46;99453.78;7357339;19;20018;-61
2023/09/18 11:01:30;;;;;;;3.30;1.23;;;;;;;20.39;93.21;99449.56;7356027;19;20022;-61
2023/09/18 11:04:03;;;;;;;3.58;1.23;;;;;;;20.43;93.88;99443.44;7358749;19;20022;-62
2023/09/18 11:06:50;;;;;;;3.78;1.55;;;;;;;20.58;94.45;99442.78;7356501;19;20029;-62
2023/09/18 11:09:20;;;;;;;3.42;0.50;;;;;;;20.69;93.31;99447.19;7350610;19;20015;-62
2023/09/18 11:11:56;;;;;;;4.30;0.60;;;;;;;20.77;93.39;99449.41;7353622;19;20022;-62
2023/09/18 11:14:45;;;;;;;4.15;0.60;;;;;;;20.85;93.20;99440.94;7358085;19;20014;-62
2023/09/18 11:17:24;;;;;;;4.05;0.50;;;;;;;20.89;92.33;99435.88;7356591;19;20252;-62
2023/09/18 11:19:58;;;;;;;4.10;0.60;;;;;;;20.89;92.74;99439.34;7357777;19;20010;-61
2023/09/18 11:22:26;;;;;;;4.03;0.77;;;;;;;20.91;92.24;99441.78;7354663;19;20485;-62
2023/09/18 11:24:54;;;;;;;5.57;0.50;;;;;;;20.89;93.03;99446.56;7359418;19;20014;-62
2023/09/18 11:27:52;;;;;;;5.03;0.50;;;;;;;20.87;92.37;99449.50;7355824;19;20071;-62
2023/09/18 11:30:19;;;;;;;1.35;0.30;;;;;;;20.80;91.06;99446.22;7357933;19;20106;-63
2023/09/18 11:32:47;;;;;;;4.75;0.40;;;;;;;20.75;90.37;99440.03;7358602;19;20491;-62
2023/09/18 11:35:17;;;;;;;1.65;0.40;;;;;;;20.77;91.24;99453.97;7362775;19;20014;-61
2023/09/18 11:37:45;;;;;;;4.65;0.30;;;;;;;20.79;91.66;99446.47;7356711;19;20291;-61